No requiere especial atencion con respecto al clima.   -   No hay Alarmas

Nearby METAR Reports

 

LEBL - Barcelona Airpor, Spain
Distance from station: SSE 30km
Actualización: 21/01/2019 20:30
Few Clouds
Few Clouds
 Viento del NO
Viento: NO 9 km/h
Temperatura: 7°C
Wind Chill: 6°C
Rocío: 4°C
Humedad: 81%
Barómetro: 1017 hPa
Clouds: Few Clouds
Visibility: 10 km
Cloud details: Few Clouds 762 m
2019/01/21 19:30 LEBL 211930Z 32005KT 290V040 9999 FEW025 07/04 Q1017 NOSIG
LELL - Sabadell, Spain
Distance from station: ONO 14km
Actualización: 21/01/2019 20:30
Despejado
Despejado
 Viento del NO
Viento: NO 7 km/h
Temperatura: 5°C
Wind Chill: 3°C
Rocío: 3°C
Humedad: 87%
Barómetro: 1016 hPa
Clouds: Despejado
Visibility: 10 km
2019/01/21 19:30 LELL 211930Z AUTO 31004KT 280V340 9999 NCD 05/03 Q1016
 
LEGE - Girona/Costa Bra, Spain
Distance from station: NE 65km
Actualización: 21/01/2019 20:30
Parcialmente nuboso
Parcialmente nuboso
 Viento del NE
Viento: NE 11 km/h
Temperatura: 5°C
Wind Chill: 2°C
Rocío: 1°C
Humedad: 76%
Barómetro: 1017 hPa
Clouds: Parcialmente nuboso
Visibility: 10 km
Cloud details: Few Clouds 914 m
Parcialmente nuboso 1524 m
2019/01/21 19:30 LEGE 211930Z 05006KT 9999 FEW030 SCT050 05/01 Q1017
LERS - Reus (civ/Mil), Spain
Distance from station: OSO 96km
Actualización: 21/01/2019 20:30
Despejado
Despejado
 Viento del NO
Viento: NO 6 km/h
Temperatura: 7°C
Rocío: 1°C
Humedad: 66%
Barómetro: 1016 hPa
Resumen: Despejado
Visibility: greater than 10 km
2019/01/21 19:30 LERS 211930Z 32003KT 280V350 CAVOK 07/01 Q1016
 
LESU - Pirineus/La Seu, Spain
Distance from station: NO 121km
Actualización: 21/01/2019 17:00
NOT Current
Few Clouds
Few Clouds
 Viento del NO
Viento: NO 15 km/h
Temperatura: 6°C
Wind Chill: 3°C
Rocío: -9°C
Humedad: 34%
Barómetro: 1015 hPa
Clouds: Few Clouds
Visibility: 10 km
Cloud details: Few Clouds 2073 m
2019/01/21 16:00 LESU 211600Z 32008KT 270V360 9999 FEW068 06/M09 Q1015
LEDA - Lleida/Alguaire, Spain
Distance from station: ONO 146km
Actualización: 21/01/2019 20:30
Few Clouds
Few Clouds
 Viento del OSO
Viento: OSO 7 km/h
Temperatura: 3°C
Wind Chill: 1°C
Rocío: 0°C
Humedad: 81%
Barómetro: 1016 hPa
Clouds: Few Clouds
Visibility: 10 km
Cloud details: Few Clouds 610 m
2019/01/21 19:30 LEDA 211930Z 24004KT 200V290 9999 FEW020 03/00 Q1016
 
LFMP - Perpignan/Rivesa, France
Distance from station: NNE 150km
Actualización: 21/01/2019 20:30
Few Clouds
Few Clouds
 Viento del NO
Viento: NO 31 km/h, Racha: 52 km/h
Temperatura: 7°C
Wind Chill: 3°C
Rocío: -1°C
Humedad: 57%
Barómetro: 1019 hPa
Clouds: Few Clouds
Visibility: 10 km
Cloud details: Few Clouds 1707 m
2019/01/21 19:30 LFMP 211930Z AUTO 31017G28KT 9999 FEW056 07/M01 Q1019 NOSIG
LEPA - Palma De Mallorca, Spain
Distance from station: S 216km
Actualización: 21/01/2019 20:30
Few Clouds
Few Clouds
 Viento del NNE
Viento: NNE 6 km/h
Temperatura: 5°C
Rocío: 5°C
Humedad: 100%
Barómetro: 1017 hPa
Clouds: Few Clouds
Visibility: 10 km
Cloud details: Few Clouds 914 m
2019/01/21 19:30 LEPA 211930Z 03003KT 9999 FEW030 05/05 Q1017 NOSIG